Time;durP1;ratioP1;P1;durP2;ratioP2;P2;SDS_P1;SDS_P2;PMS_P1;PMS_P2;Temp;Humidity;BMP_temperature;BMP_pressure;BME280_temperature;BME280_humidity;BME280_pressure;Samples;Min_cycle;Max_cycle;Signal;HPM_P1;HPM_P2
2021/06/16 00:01:04;;;;;;;9.90;8.10;;;19.50;94.20;;;;;;5108444;28;20176;-74
2021/06/16 00:03:30;;;;;;;10.10;9.40;;;19.30;94.70;;;;;;5092941;28;20176;-74
2021/06/16 00:05:56;;;;;;;9.20;8.30;;;19.30;94.90;;;;;;5092211;28;20208;-75
2021/06/16 00:08:22;;;;;;;8.77;8.17;;;19.20;95.20;;;;;;5093176;28;20176;-74
2021/06/16 00:10:47;;;;;;;9.87;9.07;;;19.10;95.30;;;;;;5092713;28;20168;-74
2021/06/16 00:13:13;;;;;;;36.90;29.40;;;19.10;95.40;;;;;;5092105;28;20437;-75
2021/06/16 00:15:43;;;;;;;56.83;46.73;;;19.00;95.70;;;;;;5106811;28;20642;-74
2021/06/16 00:18:09;;;;;;;12.67;10.83;;;19.10;96.00;;;;;;5107056;28;20420;-75
2021/06/16 00:20:35;;;;;;;9.20;8.40;;;19.20;95.90;;;;;;5112876;28;20462;-75
2021/06/16 00:23:03;;;;;;;13.57;8.87;;;19.30;95.90;;;;;;5111938;28;20452;-75
2021/06/16 00:25:29;;;;;;;9.20;8.50;;;19.30;95.90;;;;;;5097285;28;20474;-74
2021/06/16 00:27:55;;;;;;;8.90;8.20;;;19.40;95.90;;;;;;5092563;28;20836;-74
2021/06/16 00:30:22;;;;;;;9.40;8.60;;;19.50;95.80;;;;;;5091570;28;20511;-75
2021/06/16 00:32:48;;;;;;;8.43;7.83;;;19.50;95.70;;;;;;5092060;28;20452;-74
2021/06/16 00:35:21;;;;;;;8.77;7.97;;;19.50;95.70;;;;;;5091425;28;20437;-74
2021/06/16 00:37:48;;;;;;;8.93;8.10;;;19.50;95.40;;;;;;5103684;28;20455;-74
2021/06/16 00:40:16;;;;;;;8.27;7.50;;;19.50;95.30;;;;;;5111861;28;20401;-74
2021/06/16 00:42:42;;;;;;;7.33;6.83;;;19.50;95.20;;;;;;5112736;28;20909;-74
2021/06/16 00:45:09;;;;;;;8.10;7.40;;;19.60;95.60;;;;;;5111479;28;20492;-74
2021/06/16 00:47:35;;;;;;;8.03;7.43;;;19.60;95.80;;;;;;5101720;28;20437;-74
2021/06/16 00:50:04;;;;;;;7.70;7.10;;;19.60;95.70;;;;;;5101233;28;20421;-75
2021/06/16 00:52:29;;;;;;;8.40;7.60;;;19.60;95.70;;;;;;5112473;28;20182;-74
2021/06/16 00:54:55;;;;;;;11.13;7.63;;;19.60;95.40;;;;;;5110490;28;20417;-74
2021/06/16 00:57:21;;;;;;;8.43;7.63;;;19.60;95.40;;;;;;5103550;28;20678;-74
2021/06/16 01:00:07;;;;;;;9.20;8.30;;;19.50;95.50;;;;;;5092888;28;20180;-74
2021/06/16 01:02:40;;;;;;;9.03;8.33;;;19.50;95.50;;;;;;5092158;28;20165;-74
2021/06/16 01:05:07;;;;;;;9.50;8.60;;;19.50;95.00;;;;;;5105882;28;20445;-74
2021/06/16 01:07:38;;;;;;;9.70;8.80;;;19.50;95.10;;;;;;5112001;28;20420;-74
2021/06/16 01:10:05;;;;;;;9.57;8.77;;;19.40;95.10;;;;;;5111670;28;20393;-75
2021/06/16 01:12:37;;;;;;;9.80;8.67;;;19.40;95.10;;;;;;5112174;28;20410;-74
2021/06/16 01:15:19;;;;;;;9.30;8.50;;;19.20;95.10;;;;;;5111773;28;20421;-75
2021/06/16 01:17:49;;;;;;;10.20;9.27;;;19.10;95.50;;;;;;5093190;28;20581;-74
2021/06/16 01:20:26;;;;;;;10.83;8.90;;;18.90;95.90;;;;;;5091122;28;20909;-74
2021/06/16 01:22:55;;;;;;;9.07;8.40;;;18.90;96.10;;;;;;5091604;28;20496;-74
2021/06/16 01:25:33;;;;;;;10.27;8.43;;;18.90;96.30;;;;;;5095680;28;20450;-74
2021/06/16 01:28:00;;;;;;;9.63;8.93;;;19.00;96.80;;;;;;5092049;28;20449;-74
2021/06/16 01:30:29;;;;;;;11.63;8.30;;;19.00;96.90;;;;;;5091257;28;20453;-74
2021/06/16 01:32:56;;;;;;;9.30;8.47;;;19.00;96.40;;;;;;5091881;28;20427;-74
2021/06/16 01:35:25;;;;;;;9.80;8.83;;;18.90;96.20;;;;;;5089755;28;20467;-74
2021/06/16 01:37:51;;;;;;;9.37;8.47;;;18.90;96.40;;;;;;5093168;28;20505;-74
2021/06/16 01:40:19;;;;;;;10.20;9.30;;;18.90;96.50;;;;;;5090939;28;20524;-74
2021/06/16 01:42:46;;;;;;;9.47;8.67;;;18.90;96.50;;;;;;5091501;28;20632;-74
2021/06/16 01:45:15;;;;;;;9.60;8.80;;;18.90;96.50;;;;;;5089634;28;20456;-74
2021/06/16 01:47:42;;;;;;;9.77;8.70;;;19.00;96.40;;;;;;5101461;27;20433;-74
2021/06/16 01:50:09;;;;;;;9.73;8.73;;;18.90;96.10;;;;;;5104475;28;20422;-74
2021/06/16 01:52:36;;;;;;;9.70;9.00;;;18.80;96.20;;;;;;5111105;28;20784;-74
2021/06/16 01:55:02;;;;;;;9.20;8.37;;;18.70;96.50;;;;;;5108164;28;20824;-75
2021/06/16 01:57:28;;;;;;;9.40;8.50;;;18.70;96.80;;;;;;5101697;28;20418;-74
2021/06/16 01:59:56;;;;;;;9.03;8.23;;;18.80;96.80;;;;;;5113950;28;20410;-74
2021/06/16 02:02:22;;;;;;;9.50;8.47;;;18.80;97.00;;;;;;5114418;28;20201;-74
2021/06/16 02:04:47;;;;;;;8.80;8.10;;;18.80;97.20;;;;;;5115370;28;20786;-74
2021/06/16 02:07:17;;;;;;;10.57;8.20;;;18.90;97.30;;;;;;5107997;28;20234;-74
2021/06/16 02:09:45;;;;;;;8.27;7.43;;;18.90;97.20;;;;;;5095277;28;20259;-74
2021/06/16 02:12:14;;;;;;;9.70;8.80;;;18.70;96.70;;;;;;5094060;28;20451;-74
2021/06/16 02:15:07;;;;;;;8.67;7.87;;;18.80;97.00;;;;;;5102324;28;20416;-74
2021/06/16 02:17:34;;;;;;;8.83;8.13;;;18.80;97.30;;;;;;5105506;28;20438;-74
2021/06/16 02:20:00;;;;;;;9.40;8.70;;;18.80;97.20;;;;;;5094445;28;20910;-74
2021/06/16 02:22:27;;;;;;;9.10;8.40;;;18.80;97.20;;;;;;5093303;28;20502;-74
2021/06/16 02:24:54;;;;;;;7.90;7.20;;;18.80;97.00;;;;;;5106739;28;20217;-74
2021/06/16 02:27:20;;;;;;;9.30;8.47;;;18.80;96.90;;;;;;5113313;28;20496;-74
2021/06/16 02:29:46;;;;;;;9.03;8.33;;;18.80;96.90;;;;;;5114914;28;20473;-74
2021/06/16 02:32:12;;;;;;;10.23;8.43;;;18.80;96.80;;;;;;5114116;28;20838;-74
2021/06/16 02:34:38;;;;;;;9.67;8.77;;;18.80;96.70;;;;;;5114769;28;20493;-74
2021/06/16 02:37:07;;;;;;;8.87;8.07;;;18.80;96.70;;;;;;5111378;28;20245;-74
2021/06/16 02:39:37;;;;;;;8.67;7.80;;;18.80;96.90;;;;;;5094463;28;20178;-74
2021/06/16 02:42:04;;;;;;;9.03;8.30;;;18.80;96.80;;;;;;5094229;28;20531;-74
2021/06/16 02:44:31;;;;;;;9.37;8.57;;;18.80;96.80;;;;;;5093332;28;20468;-74
2021/06/16 02:46:58;;;;;;;9.50;8.60;;;18.80;96.60;;;;;;5095662;28;20894;-74
2021/06/16 02:49:35;;;;;;;9.23;8.43;;;18.70;96.40;;;;;;5113392;28;20402;-74
2021/06/16 02:52:02;;;;;;;8.30;7.67;;;18.70;96.50;;;;;;5114500;28;20408;-74
2021/06/16 02:54:31;;;;;;;9.17;7.97;;;18.70;96.60;;;;;;5112208;28;20432;-74
2021/06/16 02:57:01;;;;;;;9.30;8.43;;;18.70;96.50;;;;;;5094513;28;20425;-74
2021/06/16 02:59:30;;;;;;;9.00;8.10;;;18.50;96.50;;;;;;5092779;28;20433;-74
2021/06/16 03:01:56;;;;;;;9.30;8.40;;;18.40;97.10;;;;;;5093812;28;20425;-74
2021/06/16 03:04:22;;;;;;;9.10;8.40;;;18.50;97.30;;;;;;5093017;28;20949;-74
2021/06/16 03:06:50;;;;;;;9.20;8.30;;;18.50;97.30;;;;;;5093660;28;20549;-74
2021/06/16 03:09:19;;;;;;;8.77;7.87;;;18.50;97.30;;;;;;5092920;28;20886;-74
2021/06/16 03:11:46;;;;;;;9.20;8.40;;;18.50;97.20;;;;;;5093528;28;20425;-74
2021/06/16 03:14:12;;;;;;;9.80;9.00;;;18.60;97.40;;;;;;5093418;28;20817;-74
2021/06/16 03:16:40;;;;;;;8.50;7.70;;;18.60;98.20;;;;;;5093455;28;20467;-74
2021/06/16 03:19:07;;;;;;;9.30;8.60;;;18.60;97.80;;;;;;5112465;28;20824;-74
2021/06/16 03:21:34;;;;;;;8.07;7.33;;;18.60;97.50;;;;;;5113420;28;20482;-74
2021/06/16 03:24:00;;;;;;;9.10;8.20;;;18.60;97.40;;;;;;5112693;28;20492;-74
2021/06/16 03:26:27;;;;;;;8.43;7.83;;;18.60;97.50;;;;;;5092579;28;20547;-74
2021/06/16 03:28:55;;;;;;;9.33;8.43;;;18.60;97.30;;;;;;5093518;28;20422;-74
2021/06/16 03:31:21;;;;;;;8.23;7.53;;;18.60;97.10;;;;;;5091224;28;20953;-74
2021/06/16 03:33:48;;;;;;;9.30;8.60;;;18.70;97.40;;;;;;5093324;28;20479;-74
2021/06/16 03:36:15;;;;;;;9.03;8.30;;;18.70;97.30;;;;;;5092335;28;20409;-75
2021/06/16 03:38:43;;;;;;;9.90;9.07;;;18.70;97.30;;;;;;5093130;28;20467;-74
2021/06/16 03:41:09;;;;;;;10.10;9.03;;;18.70;97.60;;;;;;5092980;28;20414;-74
2021/06/16 03:43:36;;;;;;;10.20;8.60;;;18.70;97.50;;;;;;5092702;28;20874;-74
2021/06/16 03:46:06;;;;;;;9.80;8.90;;;18.70;97.40;;;;;;5100635;28;20449;-74
2021/06/16 03:48:34;;;;;;;11.37;10.67;;;18.70;97.50;;;;;;5099641;28;20469;-74
2021/06/16 03:51:00;;;;;;;9.50;8.80;;;18.70;97.30;;;;;;5092932;28;20795;-74
2021/06/16 03:53:27;;;;;;;13.20;12.40;;;18.70;97.30;;;;;;5092261;28;20422;-74
2021/06/16 03:55:55;;;;;;;12.80;11.70;;;18.70;96.70;;;;;;5092876;28;20433;-74
2021/06/16 03:58:22;;;;;;;9.70;8.90;;;18.70;96.50;;;;;;5092306;28;20422;-74
2021/06/16 04:00:49;;;;;;;9.10;8.30;;;18.70;96.40;;;;;;5092625;28;20776;-74
2021/06/16 04:03:15;;;;;;;9.17;8.37;;;18.70;96.30;;;;;;5091954;28;20469;-75
2021/06/16 04:05:44;;;;;;;9.53;8.63;;;18.70;96.30;;;;;;5092205;28;20456;-74
2021/06/16 04:08:11;;;;;;;9.90;9.10;;;18.80;96.40;;;;;;5092507;28;20411;-75
2021/06/16 04:10:38;;;;;;;9.73;9.03;;;18.80;96.50;;;;;;5107611;28;20469;-74
2021/06/16 04:13:05;;;;;;;8.13;7.53;;;18.80;96.50;;;;;;5112960;28;20409;-74
2021/06/16 04:15:31;;;;;;;9.37;8.57;;;18.80;96.40;;;;;;5112173;28;20405;-74
2021/06/16 04:17:59;;;;;;;8.40;7.80;;;18.80;96.20;;;;;;5112561;28;20474;-75
2021/06/16 04:20:27;;;;;;;7.87;7.03;;;18.70;96.30;;;;;;5112056;28;20410;-75
2021/06/16 04:22:53;;;;;;;9.73;8.73;;;18.70;96.50;;;;;;5107572;28;20545;-74
2021/06/16 04:25:18;;;;;;;9.00;8.30;;;18.70;96.70;;;;;;5095164;28;20838;-75
2021/06/16 04:27:44;;;;;;;8.70;8.10;;;18.70;96.60;;;;;;5112862;28;20440;-74
2021/06/16 04:30:12;;;;;;;11.00;10.03;;;18.70;96.80;;;;;;5112749;28;20175;-74
2021/06/16 04:32:39;;;;;;;9.33;8.43;;;18.70;96.80;;;;;;5100866;28;20176;-74
2021/06/16 04:35:06;;;;;;;8.87;8.20;;;18.60;96.90;;;;;;5097456;28;20426;-74
2021/06/16 04:37:33;;;;;;;8.40;7.70;;;18.60;97.10;;;;;;5104708;28;20416;-74
2021/06/16 04:39:58;;;;;;;9.67;8.97;;;18.60;97.30;;;;;;5092258;28;20425;-74
2021/06/16 04:42:24;;;;;;;12.30;11.50;;;18.60;97.50;;;;;;5091325;28;20910;-74
2021/06/16 04:44:50;;;;;;;10.10;9.30;;;18.70;97.60;;;;;;5091884;28;20294;-74
2021/06/16 04:47:16;;;;;;;9.90;8.90;;;18.70;97.60;;;;;;5091664;28;20591;-75
2021/06/16 04:49:44;;;;;;;10.10;9.10;;;18.70;97.30;;;;;;5092211;28;20180;-74
2021/06/16 04:52:10;;;;;;;8.63;7.93;;;18.70;97.30;;;;;;5092232;28;20466;-74
2021/06/16 04:54:35;;;;;;;12.63;11.50;;;18.70;97.30;;;;;;5091077;28;20941;-74
2021/06/16 04:57:05;;;;;;;10.20;9.30;;;18.60;97.20;;;;;;5092037;28;20548;-74
2021/06/16 04:59:32;;;;;;;9.73;8.83;;;18.50;97.80;;;;;;5091325;28;20539;-74
2021/06/16 05:01:59;;;;;;;11.70;10.70;;;18.50;97.90;;;;;;5105056;28;20843;-74
2021/06/16 05:04:25;;;;;;;12.70;11.80;;;18.50;98.00;;;;;;5091244;28;20446;-74
2021/06/16 05:06:51;;;;;;;13.73;9.57;;;18.50;98.00;;;;;;5091791;28;20399;-74
2021/06/16 05:09:17;;;;;;;13.33;12.17;;;18.60;98.40;;;;;;5091452;28;20782;-75
2021/06/16 05:11:42;;;;;;;11.73;10.77;;;18.70;98.80;;;;;;5091793;28;20225;-74
2021/06/16 05:14:08;;;;;;;11.50;9.23;;;18.70;98.30;;;;;;5091891;28;20283;-74
2021/06/16 05:16:34;;;;;;;9.50;8.60;;;18.80;98.20;;;;;;5090924;28;20237;-74
2021/06/16 05:18:59;;;;;;;13.07;11.77;;;18.80;98.10;;;;;;5091950;28;20605;-74
2021/06/16 05:21:26;;;;;;;10.97;9.80;;;18.80;97.30;;;;;;5090707;28;20651;-74
2021/06/16 05:23:52;;;;;;;12.53;11.53;;;18.70;97.40;;;;;;5094135;28;20228;-74
2021/06/16 05:26:18;;;;;;;10.53;9.50;;;18.70;97.60;;;;;;5094104;28;20513;-75
2021/06/16 05:28:44;;;;;;;13.40;12.10;;;18.80;97.40;;;;;;5095467;28;20449;-74
2021/06/16 05:31:10;;;;;;;11.87;11.07;;;18.80;97.70;;;;;;5098888;28;20414;-74
2021/06/16 05:33:37;;;;;;;13.67;12.50;;;18.90;98.70;;;;;;5095681;28;20206;-74
2021/06/16 05:36:04;;;;;;;16.67;15.27;;;19.00;98.10;;;;;;5095927;28;20938;-74
2021/06/16 05:38:30;;;;;;;12.97;10.20;;;19.10;97.40;;;;;;5095226;28;20427;-74
2021/06/16 05:40:56;;;;;;;11.83;10.93;;;19.10;97.30;;;;;;5099576;28;20414;-74
2021/06/16 05:43:21;;;;;;;12.50;11.50;;;19.10;97.20;;;;;;5102640;28;20426;-74
2021/06/16 05:45:47;;;;;;;11.90;10.80;;;19.10;97.00;;;;;;5096634;28;20215;-74
2021/06/16 05:48:13;;;;;;;13.73;12.67;;;19.00;97.30;;;;;;5095115;28;20184;-74
2021/06/16 05:50:39;;;;;;;12.77;11.53;;;19.00;98.00;;;;;;5095233;28;20414;-74
2021/06/16 05:53:10;;;;;;;12.93;11.73;;;19.10;97.60;;;;;;5110433;28;20184;-74
2021/06/16 05:55:36;;;;;;;10.73;9.77;;;19.10;97.60;;;;;;5115040;28;20372;-74
2021/06/16 05:58:03;;;;;;;13.33;12.33;;;19.20;98.00;;;;;;5115863;28;20394;-74
2021/06/16 06:00:28;;;;;;;10.00;9.10;;;19.30;97.70;;;;;;5113569;28;20409;-74
2021/06/16 06:02:54;;;;;;;11.80;10.83;;;19.40;98.80;;;;;;5097124;28;20459;-74
2021/06/16 06:05:20;;;;;;;12.70;11.50;;;19.50;97.00;;;;;;5101578;28;20242;-74
2021/06/16 06:07:45;;;;;;;9.13;8.20;;;19.50;96.00;;;;;;5115408;28;20171;-74
2021/06/16 06:10:12;;;;;;;10.00;8.17;;;19.50;95.90;;;;;;5115659;28;20683;-74
2021/06/16 06:12:37;;;;;;;11.03;8.73;;;19.40;96.00;;;;;;5103694;28;20177;-74
2021/06/16 06:15:06;;;;;;;10.07;9.27;;;19.40;95.80;;;;;;5105111;28;20501;-75
2021/06/16 06:17:33;;;;;;;12.83;11.80;;;19.40;96.10;;;;;;5114707;28;20172;-75
2021/06/16 06:19:58;;;;;;;10.13;9.33;;;19.40;96.70;;;;;;5112745;28;20420;-75
2021/06/16 06:22:24;;;;;;;11.60;10.90;;;19.60;97.30;;;;;;5109241;27;20413;-75
2021/06/16 06:24:50;;;;;;;9.50;8.80;;;19.70;96.30;;;;;;5109625;28;20224;-75
2021/06/16 06:27:15;;;;;;;14.73;13.73;;;19.80;96.10;;;;;;5094770;28;20176;-74
2021/06/16 06:29:41;;;;;;;13.00;12.20;;;19.90;96.00;;;;;;5095350;28;20180;-75
2021/06/16 06:32:07;;;;;;;10.60;9.50;;;20.00;95.90;;;;;;5094828;28;20302;-74
2021/06/16 06:34:33;;;;;;;9.90;8.93;;;20.10;95.80;;;;;;5093685;28;20612;-74
2021/06/16 06:36:58;;;;;;;12.00;10.87;;;20.20;96.60;;;;;;5097874;28;20199;-74
2021/06/16 06:39:24;;;;;;;11.40;10.50;;;20.40;96.80;;;;;;5094048;28;20207;-74
2021/06/16 06:41:50;;;;;;;11.00;10.10;;;20.50;97.40;;;;;;5098298;28;20176;-75
2021/06/16 06:44:16;;;;;;;11.80;10.70;;;20.70;97.50;;;;;;5103955;28;20195;-74
2021/06/16 06:46:41;;;;;;;11.40;9.73;;;20.80;96.70;;;;;;5097925;28;20785;-75
2021/06/16 06:49:07;;;;;;;11.10;9.97;;;20.90;96.40;;;;;;5117064;27;20187;-75
2021/06/16 06:51:33;;;;;;;12.67;11.87;;;21.00;96.00;;;;;;5101988;28;20233;-74
2021/06/16 06:53:58;;;;;;;10.17;9.33;;;21.10;96.30;;;;;;5107330;28;20252;-74
2021/06/16 06:56:24;;;;;;;10.53;9.20;;;21.20;95.80;;;;;;5098053;28;20188;-74
2021/06/16 06:58:50;;;;;;;12.93;11.93;;;21.40;96.00;;;;;;5105542;28;20549;-74
2021/06/16 07:01:15;;;;;;;10.80;10.00;;;21.50;95.80;;;;;;5116313;27;20635;-74
2021/06/16 07:03:41;;;;;;;11.17;10.37;;;21.70;95.80;;;;;;5113943;27;20221;-74
2021/06/16 07:06:07;;;;;;;12.80;11.60;;;21.70;95.10;;;;;;5105088;28;20210;-74
2021/06/16 07:08:32;;;;;;;11.13;10.20;;;21.80;95.80;;;;;;5107750;27;20632;-75
2021/06/16 07:10:58;;;;;;;10.27;8.73;;;22.00;95.10;;;;;;5113739;28;20187;-75
2021/06/16 07:13:24;;;;;;;8.27;7.67;;;22.20;95.80;;;;;;5103947;28;20172;-76
2021/06/16 07:15:50;;;;;;;9.47;8.60;;;22.30;95.40;;;;;;5092361;28;20176;-75
2021/06/16 07:18:15;;;;;;;9.40;8.53;;;22.40;94.60;;;;;;5105457;28;20176;-74
2021/06/16 07:20:41;;;;;;;9.50;8.70;;;22.60;95.20;;;;;;5106791;28;20200;-75
2021/06/16 07:23:07;;;;;;;9.20;8.40;;;22.70;95.00;;;;;;5103241;28;20243;-74
2021/06/16 07:25:33;;;;;;;11.70;8.60;;;22.80;95.50;;;;;;5107273;28;20207;-75
2021/06/16 07:27:58;;;;;;;10.97;10.13;;;23.00;94.40;;;;;;5112770;28;20176;-74
2021/06/16 07:30:24;;;;;;;8.80;8.13;;;23.00;93.10;;;;;;5097056;28;20259;-76
2021/06/16 07:32:53;;;;;;;8.70;8.00;;;23.20;94.00;;;;;;5104727;28;20180;-74
2021/06/16 07:35:18;;;;;;;9.67;8.77;;;23.20;94.60;;;;;;5100670;28;20267;-74
2021/06/16 07:37:44;;;;;;;10.53;9.63;;;23.30;95.00;;;;;;5091778;28;20497;-74
2021/06/16 07:40:10;;;;;;;11.13;10.33;;;23.40;93.90;;;;;;5093273;28;20182;-74
2021/06/16 07:42:40;;;;;;;10.70;9.90;;;23.50;94.20;;;;;;5105135;28;20167;-75
2021/06/16 07:45:07;;;;;;;10.60;10.00;;;23.60;93.30;;;;;;5113226;28;20457;-75
2021/06/16 07:47:33;;;;;;;11.63;10.40;;;23.60;93.30;;;;;;5113067;28;20402;-75
2021/06/16 07:49:59;;;;;;;11.13;9.70;;;23.80;94.00;;;;;;5113727;28;20406;-77
2021/06/16 07:52:27;;;;;;;9.57;8.80;;;23.90;94.30;;;;;;5112986;28;20175;-77
2021/06/16 07:54:53;;;;;;;9.43;8.50;;;24.00;94.40;;;;;;5113960;28;20423;-76
2021/06/16 07:57:18;;;;;;;26.50;23.73;;;23.90;93.00;;;;;;5111950;28;20409;-78
2021/06/16 07:59:44;;;;;;;15.40;13.90;;;23.90;94.10;;;;;;5095923;28;20441;-76
2021/06/16 08:02:17;;;;;;;26.30;20.23;;;24.00;94.30;;;;;;5113346;28;20172;-76
2021/06/16 08:04:43;;;;;;;10.83;9.77;;;24.10;93.80;;;;;;5111851;28;20191;-76
2021/06/16 08:07:10;;;;;;;15.60;14.20;;;24.30;93.80;;;;;;5113508;28;20760;-76
2021/06/16 08:09:42;;;;;;;9.30;8.53;;;24.40;93.40;;;;;;5112800;28;20454;-76
2021/06/16 08:12:09;;;;;;;9.13;8.43;;;24.40;92.00;;;;;;5113476;28;20398;-76
2021/06/16 08:14:36;;;;;;;9.73;8.63;;;24.30;92.40;;;;;;5112145;28;20436;-75
2021/06/16 08:17:04;;;;;;;11.77;10.87;;;24.30;92.60;;;;;;5113281;27;20424;-75
2021/06/16 08:19:30;;;;;;;27.53;24.67;;;24.40;92.90;;;;;;5112607;28;20768;-83
2021/06/16 08:21:57;;;;;;;10.70;9.60;;;24.50;92.90;;;;;;5109542;28;20406;-78
2021/06/16 08:24:23;;;;;;;10.47;9.57;;;24.60;93.00;;;;;;5098039;28;20975;-78
2021/06/16 08:26:49;;;;;;;8.63;8.03;;;24.70;93.00;;;;;;5105416;28;20421;-79
2021/06/16 08:29:15;;;;;;;21.17;19.07;;;24.80;93.20;;;;;;5093350;28;20982;-78
2021/06/16 08:31:41;;;;;;;21.20;19.00;;;24.90;93.50;;;;;;5111971;28;20203;-78
2021/06/16 08:34:06;;;;;;;10.97;10.13;;;25.00;93.10;;;;;;5112735;28;20168;-78
2021/06/16 08:36:32;;;;;;;22.43;20.17;;;25.10;93.20;;;;;;5112253;28;20705;-78
2021/06/16 08:38:58;;;;;;;21.23;19.10;;;25.30;92.70;;;;;;5113079;28;20660;-77
2021/06/16 08:41:26;;;;;;;18.60;16.80;;;25.30;91.70;;;;;;5113022;28;20904;-77
2021/06/16 08:43:52;;;;;;;17.30;15.53;;;25.40;91.20;;;;;;5113063;28;20206;-78
2021/06/16 08:46:20;;;;;;;14.97;13.37;;;25.50;91.30;;;;;;5112939;28;20873;-77
2021/06/16 08:48:46;;;;;;;19.77;17.93;;;25.60;91.80;;;;;;5112428;28;20452;-79
2021/06/16 08:51:14;;;;;;;37.10;33.33;;;25.70;91.30;;;;;;5112890;28;20405;-78
2021/06/16 08:53:40;;;;;;;25.50;23.00;;;25.80;91.80;;;;;;5112208;28;20416;-78
2021/06/16 08:56:06;;;;;;;17.87;16.27;;;25.80;90.80;;;;;;5112835;28;20916;-78
2021/06/16 08:58:37;;;;;;;19.37;17.47;;;25.90;90.90;;;;;;5116173;28;20401;-78
2021/06/16 09:01:04;;;;;;;35.43;31.73;;;25.90;92.30;;;;;;5117024;28;20182;-78
2021/06/16 09:03:30;;;;;;;31.73;28.30;;;26.00;90.90;;;;;;5116512;28;20492;-78
2021/06/16 09:06:07;;;;;;;40.77;36.63;;;26.20;91.50;;;;;;5116849;28;20812;-78
2021/06/16 09:08:49;;;;;;;33.60;30.40;;;26.20;90.70;;;;;;5116364;28;20724;-78
2021/06/16 09:11:14;;;;;;;37.17;33.13;;;26.30;90.20;;;;;;5117170;28;20404;-79
2021/06/16 09:13:41;;;;;;;27.30;24.60;;;26.40;90.30;;;;;;5116224;28;20884;-78
2021/06/16 09:16:28;;;;;;;97.37;86.27;;;26.40;90.90;;;;;;5116861;28;20666;-78
2021/06/16 09:18:54;;;;;;;81.77;69.43;;;26.50;90.40;;;;;;5116787;28;20397;-80
2021/06/16 09:21:38;;;;;;;41.07;36.93;;;26.50;90.00;;;;;;5116315;28;20948;-78
2021/06/16 09:24:06;;;;;;;16.83;15.23;;;26.50;91.10;;;;;;5116436;28;20465;-78
2021/06/16 09:26:40;;;;;;;93.43;83.13;;;26.60;91.20;;;;;;5115910;28;20842;-77
2021/06/16 09:29:09;;;;;;;42.67;38.27;;;26.80;91.10;;;;;;5116563;28;20416;-77
2021/06/16 09:31:45;;;;;;;15.20;13.70;;;26.80;89.40;;;;;;5115902;28;20528;-77
2021/06/16 09:34:13;;;;;;;32.53;29.27;;;27.00;91.00;;;;;;5116427;28;20425;-75
2021/06/16 09:36:54;;;;;;;13.63;12.43;;;27.00;88.60;;;;;;5115452;28;20417;-75
2021/06/16 09:39:24;;;;;;;46.03;41.57;;;27.10;91.00;;;;;;5116276;28;20789;-75
2021/06/16 09:42:12;;;;;;;44.10;39.33;;;27.30;90.00;;;;;;5115990;28;20420;-75
2021/06/16 09:44:46;;;;;;;34.63;31.37;;;27.40;88.50;;;;;;5115517;28;20441;-76
2021/06/16 09:47:23;;;;;;;24.50;22.10;;;27.40;88.20;;;;;;5116157;28;20405;-75
2021/06/16 09:50:00;;;;;;;24.77;22.57;;;27.40;89.00;;;;;;5115556;28;20381;-75
2021/06/16 09:52:38;;;;;;;20.53;18.63;;;27.30;87.20;;;;;;5116018;28;20415;-75
2021/06/16 09:55:26;;;;;;;15.43;14.27;;;27.30;89.40;;;;;;5115954;28;20401;-75
2021/06/16 09:58:05;;;;;;;19.53;18.03;;;27.30;89.50;;;;;;5115629;28;20423;-75
2021/06/16 10:00:32;;;;;;;13.53;12.53;;;27.30;87.40;;;;;;5115690;28;20857;-76
2021/06/16 10:03:12;;;;;;;12.90;12.00;;;27.20;90.10;;;;;;5115882;28;20420;-75
2021/06/16 10:06:04;;;;;;;12.77;11.87;;;27.30;90.90;;;;;;5115157;28;20445;-75
2021/06/16 10:08:35;;;;;;;20.60;19.00;;;27.40;90.90;;;;;;5114644;28;20497;-75
2021/06/16 10:11:02;;;;;;;13.13;11.93;;;27.60;90.20;;;;;;5115808;28;20937;-75
2021/06/16 10:13:28;;;;;;;12.60;11.50;;;27.70;90.60;;;;;;5115933;28;20441;-75
2021/06/16 10:15:56;;;;;;;12.50;11.60;;;27.80;90.00;;;;;;5114970;28;20492;-75
2021/06/16 10:18:24;;;;;;;12.80;11.70;;;28.00;90.00;;;;;;5115580;28;20394;-75
2021/06/16 10:20:54;;;;;;;12.50;11.70;;;28.30;89.40;;;;;;5114843;28;20409;-75
2021/06/16 10:23:20;;;;;;;13.43;12.23;;;28.40;88.00;;;;;;5115394;28;20637;-76
2021/06/16 10:25:47;;;;;;;13.93;12.93;;;28.70;88.70;;;;;;5114799;28;20449;-75
2021/06/16 10:28:17;;;;;;;267.03;239.40;;;28.90;87.20;;;;;;5115354;28;20405;-75
2021/06/16 10:30:44;;;;;;;55.60;49.90;;;29.10;86.50;;;;;;5114455;28;20797;-76
2021/06/16 10:33:26;;;;;;;40.33;36.67;;;29.30;86.80;;;;;;5115307;28;20772;-75
2021/06/16 10:36:13;;;;;;;15.33;14.23;;;29.40;86.10;;;;;;5114289;28;20923;-75
2021/06/16 10:38:41;;;;;;;12.57;11.77;;;29.60;86.00;;;;;;5114260;28;20408;-76
2021/06/16 10:41:07;;;;;;;16.43;15.07;;;29.60;85.40;;;;;;5115092;28;20731;-75
2021/06/16 10:43:35;;;;;;;17.67;16.27;;;29.60;82.90;;;;;;5114479;28;20397;-76
2021/06/16 10:46:06;;;;;;;14.07;13.13;;;29.70;84.80;;;;;;5114707;28;20453;-75
2021/06/16 10:48:51;;;;;;;13.20;12.30;;;29.80;85.20;;;;;;5114529;28;20404;-75
2021/06/16 10:51:27;;;;;;;13.50;12.60;;;29.90;81.10;;;;;;5114866;28;20435;-75
2021/06/16 10:54:19;;;;;;;12.93;11.93;;;29.90;83.00;;;;;;5113838;28;20421;-76
2021/06/16 10:57:06;;;;;;;12.67;11.57;;;30.10;84.40;;;;;;5114338;28;20458;-76
2021/06/16 10:59:43;;;;;;;14.30;13.30;;;30.20;81.60;;;;;;5115522;28;20405;-75
2021/06/16 11:02:16;;;;;;;12.93;12.03;;;30.30;83.60;;;;;;5114720;28;20501;-76
2021/06/16 11:04:43;;;;;;;13.53;12.33;;;30.40;79.00;;;;;;5114022;28;20453;-76
2021/06/16 11:07:30;;;;;;;13.13;12.13;;;30.40;79.00;;;;;;5114859;28;20445;-76
2021/06/16 11:10:01;;;;;;;13.30;12.30;;;30.50;80.00;;;;;;5113917;28;20444;-75
2021/06/16 11:12:51;;;;;;;12.83;11.83;;;30.50;75.60;;;;;;5113283;28;20753;-75
2021/06/16 11:15:26;;;;;;;12.37;11.47;;;30.50;77.90;;;;;;5106231;28;20425;-75
2021/06/16 11:17:57;;;;;;;13.20;12.30;;;30.60;75.50;;;;;;5113476;28;20397;-76
2021/06/16 11:20:34;;;;;;;12.77;11.87;;;30.70;79.10;;;;;;5114240;28;20915;-75
2021/06/16 11:23:02;;;;;;;11.17;10.47;;;30.90;80.70;;;;;;5113490;28;20480;-76
2021/06/16 11:25:34;;;;;;;10.93;10.00;;;31.00;76.00;;;;;;5114248;28;20480;-76
2021/06/16 11:28:08;;;;;;;11.07;10.07;;;31.00;69.70;;;;;;5114251;28;20437;-76
2021/06/16 11:30:48;;;;;;;9.93;9.37;;;31.00;71.40;;;;;;5113990;28;20400;-75
2021/06/16 11:33:23;;;;;;;8.90;8.40;;;30.90;65.40;;;;;;5114313;28;20455;-76
2021/06/16 11:35:48;;;;;;;10.13;9.43;;;31.00;62.50;;;;;;5113434;28;20405;-76
2021/06/16 11:38:17;;;;;;;9.60;9.00;;;31.00;62.90;;;;;;5113997;28;20418;-75
2021/06/16 11:40:51;;;;;;;10.80;9.30;;;31.00;60.60;;;;;;5113285;28;20191;-81
2021/06/16 11:43:50;;;;;;;9.13;8.43;;;31.10;62.40;;;;;;5113503;28;20872;-77
2021/06/16 11:46:25;;;;;;;9.17;8.67;;;31.10;61.80;;;;;;5079900;28;20548;-78
2021/06/16 11:49:02;;;;;;;9.60;8.90;;;31.20;63.10;;;;;;5112328;28;20393;-78
2021/06/16 11:51:42;;;;;;;9.73;9.03;;;31.10;58.20;;;;;;5113449;28;20401;-77
2021/06/16 11:54:23;;;;;;;9.00;8.50;;;30.90;61.00;;;;;;5113222;28;20908;-77
2021/06/16 11:57:07;;;;;;;9.43;8.83;;;30.80;59.20;;;;;;5113446;28;20436;-77
2021/06/16 11:59:44;;;;;;;9.27;8.77;;;30.60;60.30;;;;;;5113672;28;20393;-77
2021/06/16 12:02:21;;;;;;;9.83;9.13;;;30.50;62.10;;;;;;5113608;28;20397;-77
2021/06/16 12:04:51;;;;;;;9.13;8.53;;;30.40;63.30;;;;;;5112944;28;20429;-77
2021/06/16 12:07:32;;;;;;;12.23;11.37;;;30.20;60.30;;;;;;5113667;28;20397;-77
2021/06/16 12:10:06;;;;;;;10.40;9.70;;;30.00;62.00;;;;;;5112654;28;20474;-77
2021/06/16 12:13:03;;;;;;;8.80;8.20;;;30.20;66.60;;;;;;5113328;28;20411;-77
2021/06/16 12:15:32;;;;;;;9.53;8.93;;;30.30;62.40;;;;;;5113480;28;20469;-77
2021/06/16 12:18:03;;;;;;;9.20;8.60;;;30.40;62.50;;;;;;5112740;28;20904;-77
2021/06/16 12:20:37;;;;;;;11.83;10.93;;;30.40;64.90;;;;;;5113223;28;20425;-77
2021/06/16 12:23:28;;;;;;;12.97;12.20;;;30.50;61.90;;;;;;5112486;28;20915;-77
2021/06/16 12:26:09;;;;;;;9.00;8.17;;;30.60;61.00;;;;;;5112641;28;20914;-77
2021/06/16 12:28:38;;;;;;;9.17;8.57;;;30.60;61.00;;;;;;5112999;28;20804;-77
2021/06/16 12:31:09;;;;;;;10.00;9.40;;;30.50;60.20;;;;;;5112784;28;20402;-77
2021/06/16 12:33:50;;;;;;;9.10;8.60;;;30.20;60.10;;;;;;5112971;28;20394;-77
2021/06/16 12:36:24;;;;;;;8.90;8.20;;;30.20;63.80;;;;;;5112799;28;20825;-77
2021/06/16 12:38:55;;;;;;;10.67;9.97;;;30.00;58.80;;;;;;5112508;28;20389;-77
2021/06/16 12:41:22;;;;;;;9.93;9.33;;;30.10;61.70;;;;;;5112958;28;20425;-77
2021/06/16 12:43:48;;;;;;;19.77;18.00;;;30.20;64.90;;;;;;5112103;28;20417;-77
2021/06/16 12:46:14;;;;;;;56.10;50.20;;;30.40;63.20;;;;;;5112664;28;20792;-77
2021/06/16 12:48:39;;;;;;;10.87;10.17;;;30.50;62.40;;;;;;5112718;28;20323;-77